Grantville, New York
Current Conditions -  °F | °C
As of 1:53 AM on Monday 24 Nov 2014 (Local Time) from KMSS Reporting Station
Few Clouds Few Clouds  
Wind Chill: 41°   Ceiling: Unl
Heat Index: 44°   Visibility: 10mi
Dew Point: 39°   Wind: 6mph
Humidity: 82%   Direction: 70°ENE
Pressure: 29.74"   Gusts: NA
Location:  44.8601°N, 74.9939°W
Report Text: KMSS 240653Z AUTO 07005KT 10SM FEW100 07/04 A2974 RMK AO2 SLP074 T00670039
Loading
Personal Weather Stations






























Interactive Weather Map New forecast layout! Learn more

10-Day Weather Forecast

Advertisements
Track Severe Weather on mobile